Tan-tan, Morocco
Current Conditions -  °F | °C
As of 6:00 PM on Saturday 25 Oct 2014 (Local Time) from GMAG Reporting Station
Clear Clear  
Wind Chill: 82°   Ceiling: Unl
Heat Index: 82°   Visibility: 6mi
Dew Point: 54°   Wind: 9mph
Humidity: 37%   Direction: 280°W
Pressure: 30.03"   Gusts: NA
Location:  28.43°N, 11.1°W
Report Text: GMAG 251700Z 28008KT CAVOK 28/12 Q1017 NOSIG
Loading
Personal Weather Stations






























Interactive Weather Map
Tropical Storm Tracking
New forecast layout! Learn more

10-Day Weather Forecast

Advertisements
Track Severe Weather on mobile